Time;durP1;ratioP1;P1;durP2;ratioP2;P2;SDS_P1;SDS_P2;PMS_P1;PMS_P2;Temp;Humidity;BMP_temperature;BMP_pressure;BME280_temperature;BME280_humidity;BME280_pressure;Samples;Min_cycle;Max_cycle;Signal;HPM_P1;HPM_P2
2023/10/30 00:00:07;;;;;;;4.30;2.80;;;11.20;99.90;;;;;;5124503;27;20020;-68
2023/10/30 00:02:36;;;;;;;4.05;3.22;;;11.20;99.90;;;;;;5129518;27;20025;-68
2023/10/30 00:05:03;;;;;;;2.92;2.63;;;11.20;99.90;;;;;;5133929;27;20015;-68
2023/10/30 00:07:28;;;;;;;4.95;2.63;;;11.20;99.90;;;;;;5132269;27;20047;-69
2023/10/30 00:09:54;;;;;;;4.55;2.90;;;11.20;99.90;;;;;;5133162;27;20388;-68
2023/10/30 00:12:20;;;;;;;6.88;2.40;;;11.30;99.90;;;;;;5133152;27;20094;-70
2023/10/30 00:14:45;;;;;;;4.57;2.63;;;11.30;99.90;;;;;;5132403;27;20091;-68
2023/10/30 00:17:11;;;;;;;2.75;1.83;;;11.30;99.90;;;;;;5132840;27;20372;-68
2023/10/30 00:19:37;;;;;;;2.45;2.00;;;11.30;99.90;;;;;;5131932;27;20083;-68
2023/10/30 00:22:03;;;;;;;2.25;1.65;;;11.30;99.90;;;;;;5133955;27;20027;-68
2023/10/30 00:24:29;;;;;;;3.42;1.90;;;11.30;99.90;;;;;;5131836;27;20452;-68
2023/10/30 00:26:55;;;;;;;2.83;1.75;;;11.30;99.90;;;;;;5132356;27;20363;-68
2023/10/30 00:29:21;;;;;;;3.38;1.70;;;11.30;99.90;;;;;;5132235;27;20011;-69
2023/10/30 00:31:47;;;;;;;2.55;1.60;;;11.30;99.90;;;;;;5131889;27;20496;-68
2023/10/30 00:34:13;;;;;;;3.55;1.52;;;11.30;99.90;;;;;;5132537;27;20478;-68
2023/10/30 00:36:39;;;;;;;2.70;1.65;;;11.30;99.90;;;;;;5132329;27;20846;-68
2023/10/30 00:39:04;;;;;;;3.53;1.50;;;11.30;99.90;;;;;;5132840;27;20015;-68
2023/10/30 00:41:31;;;;;;;2.17;1.77;;;11.30;99.90;;;;;;5113893;27;20102;-68
2023/10/30 00:43:56;;;;;;;3.30;1.52;;;11.30;99.90;;;;;;5131804;27;20393;-68
2023/10/30 00:46:22;;;;;;;1.92;1.73;;;11.40;99.90;;;;;;5132066;27;20022;-70
2023/10/30 00:48:48;;;;;;;1.95;1.65;;;11.50;99.90;;;;;;5132571;27;20030;-68
2023/10/30 00:51:14;;;;;;;2.13;1.40;;;11.40;99.90;;;;;;5132492;27;20019;-68
2023/10/30 00:53:39;;;;;;;5.22;2.10;;;11.40;99.90;;;;;;5131546;27;20019;-68
2023/10/30 00:56:05;;;;;;;2.05;1.70;;;11.40;99.90;;;;;;5133440;27;20056;-69
2023/10/30 00:58:31;;;;;;;3.58;1.85;;;11.40;99.90;;;;;;5131607;27;20042;-68
2023/10/30 01:00:57;;;;;;;2.38;1.73;;;11.40;99.90;;;;;;5118615;27;20019;-68
2023/10/30 01:03:23;;;;;;;3.13;1.90;;;11.40;99.90;;;;;;5131690;27;20464;-70
2023/10/30 01:05:56;;;;;;;2.38;1.55;;;11.50;99.90;;;;;;5132584;27;20046;-68
2023/10/30 01:08:22;;;;;;;4.15;1.50;;;11.50;99.90;;;;;;5130611;27;20027;-70
2023/10/30 01:10:47;;;;;;;3.13;1.55;;;11.50;99.90;;;;;;5132530;27;20024;-68
2023/10/30 01:13:13;;;;;;;3.40;2.00;;;11.50;99.90;;;;;;5132482;27;20023;-68
2023/10/30 01:15:39;;;;;;;3.33;1.77;;;11.50;99.90;;;;;;5131529;27;20672;-68
2023/10/30 01:18:04;;;;;;;2.53;1.52;;;11.50;99.90;;;;;;5110045;28;20034;-68
2023/10/30 01:20:31;;;;;;;2.15;1.73;;;11.50;99.90;;;;;;5129038;27;20093;-68
2023/10/30 01:22:56;;;;;;;2.35;1.92;;;11.50;99.90;;;;;;5131708;27;20047;-68
2023/10/30 01:25:22;;;;;;;1.80;1.67;;;11.60;99.90;;;;;;5113536;28;20455;-69
2023/10/30 01:27:48;;;;;;;3.42;2.03;;;11.60;99.90;;;;;;5131977;28;20064;-68
2023/10/30 01:30:14;;;;;;;2.70;2.30;;;11.50;99.90;;;;;;5132672;27;20414;-68
2023/10/30 01:32:39;;;;;;;6.00;2.35;;;11.50;99.90;;;;;;5130354;28;20027;-68
2023/10/30 01:35:05;;;;;;;3.13;2.17;;;11.60;99.90;;;;;;5132258;28;20448;-68
2023/10/30 01:37:31;;;;;;;3.55;1.63;;;11.60;99.90;;;;;;5112610;28;20157;-68
2023/10/30 01:39:56;;;;;;;2.15;1.95;;;11.60;99.90;;;;;;5132179;28;20034;-68
2023/10/30 01:42:22;;;;;;;4.82;1.88;;;11.60;99.90;;;;;;5112877;28;20023;-70
2023/10/30 01:44:55;;;;;;;3.15;1.70;;;11.60;99.90;;;;;;5131709;28;20050;-68
2023/10/30 01:47:21;;;;;;;1.83;1.73;;;11.50;99.90;;;;;;5131422;27;20045;-70
2023/10/30 01:49:47;;;;;;;2.75;1.58;;;11.60;99.90;;;;;;5131185;28;20027;-68
2023/10/30 01:52:13;;;;;;;1.67;1.58;;;11.60;99.90;;;;;;5131973;28;20019;-68
2023/10/30 01:54:39;;;;;;;2.55;1.67;;;11.60;99.90;;;;;;5132091;27;20380;-68
2023/10/30 01:57:05;;;;;;;3.03;2.10;;;11.50;99.90;;;;;;5136275;27;20027;-68
2023/10/30 01:59:31;;;;;;;2.47;2.20;;;11.60;99.90;;;;;;5134929;27;20019;-68
2023/10/30 02:01:57;;;;;;;2.58;2.33;;;11.60;99.90;;;;;;5135929;27;20076;-68
2023/10/30 02:04:23;;;;;;;4.10;2.30;;;11.60;99.90;;;;;;5116721;27;20031;-70
2023/10/30 02:06:49;;;;;;;3.65;1.75;;;11.60;99.90;;;;;;5136056;27;20038;-68
2023/10/30 02:09:15;;;;;;;2.78;1.40;;;11.50;99.90;;;;;;5135325;27;20440;-69
2023/10/30 02:11:41;;;;;;;2.95;1.42;;;11.60;99.90;;;;;;5134681;27;20590;-68
2023/10/30 02:14:06;;;;;;;3.53;2.35;;;11.60;99.90;;;;;;5135211;27;20092;-68
2023/10/30 02:16:32;;;;;;;1.90;1.73;;;11.60;99.90;;;;;;5134651;27;20088;-68
2023/10/30 02:18:57;;;;;;;3.22;1.52;;;11.60;99.90;;;;;;5116784;27;20507;-68
2023/10/30 02:21:24;;;;;;;2.13;1.73;;;11.50;99.90;;;;;;5135006;27;20015;-70
2023/10/30 02:23:49;;;;;;;2.40;1.63;;;11.50;99.90;;;;;;5135280;27;20023;-68
2023/10/30 02:26:15;;;;;;;2.05;1.85;;;11.40;99.90;;;;;;5135719;27;20029;-68
2023/10/30 02:28:40;;;;;;;3.15;1.75;;;11.40;99.90;;;;;;5134416;27;20460;-68
2023/10/30 02:31:06;;;;;;;3.38;2.50;;;11.30;99.90;;;;;;5134828;27;20555;-68
2023/10/30 02:33:32;;;;;;;4.47;2.55;;;11.20;99.90;;;;;;5134343;27;20363;-68
2023/10/30 02:35:58;;;;;;;2.65;1.73;;;11.20;99.90;;;;;;5135700;27;20203;-68
2023/10/30 02:38:23;;;;;;;2.47;2.28;;;11.20;99.90;;;;;;5134100;27;20077;-69
2023/10/30 02:40:49;;;;;;;3.75;2.47;;;11.10;99.90;;;;;;5135822;27;20078;-68
2023/10/30 02:43:15;;;;;;;3.83;2.67;;;11.10;99.90;;;;;;5116331;27;20106;-68
2023/10/30 02:45:40;;;;;;;5.95;3.05;;;11.10;99.90;;;;;;5134823;27;20019;-68
2023/10/30 02:48:06;;;;;;;4.00;2.45;;;11.10;99.90;;;;;;5134638;27;20026;-68
2023/10/30 02:50:31;;;;;;;4.38;2.40;;;11.10;99.90;;;;;;5134020;27;20072;-68
2023/10/30 02:52:57;;;;;;;4.15;2.58;;;11.00;99.90;;;;;;5134158;27;20479;-68
2023/10/30 02:55:22;;;;;;;5.35;2.58;;;11.00;99.90;;;;;;5134768;27;20023;-69
2023/10/30 02:57:48;;;;;;;3.03;2.60;;;11.00;99.90;;;;;;5116174;27;20015;-68
2023/10/30 03:00:14;;;;;;;3.92;2.92;;;10.90;99.90;;;;;;5135120;27;20027;-68
2023/10/30 03:02:39;;;;;;;3.67;2.70;;;10.90;99.90;;;;;;5133355;27;20023;-68
2023/10/30 03:05:06;;;;;;;3.97;2.83;;;10.90;99.90;;;;;;5134802;27;20027;-68
2023/10/30 03:07:32;;;;;;;5.32;3.17;;;10.90;99.90;;;;;;5133508;27;20471;-68
2023/10/30 03:09:57;;;;;;;4.03;2.70;;;10.90;99.90;;;;;;5134207;27;20391;-68
2023/10/30 03:12:23;;;;;;;6.97;3.10;;;10.90;99.90;;;;;;5134127;27;20122;-69
2023/10/30 03:14:49;;;;;;;3.22;2.63;;;10.90;99.90;;;;;;5134583;27;20465;-68
2023/10/30 03:17:14;;;;;;;4.00;2.90;;;10.90;99.90;;;;;;5133708;27;20622;-68
2023/10/30 03:19:40;;;;;;;3.30;2.83;;;10.90;99.90;;;;;;5133493;27;20165;-68
2023/10/30 03:22:06;;;;;;;3.53;2.53;;;10.90;99.90;;;;;;5134257;27;20030;-68
2023/10/30 03:24:31;;;;;;;3.65;2.50;;;11.00;99.90;;;;;;5133706;27;20020;-68
2023/10/30 03:26:57;;;;;;;3.58;2.28;;;11.00;99.90;;;;;;5134264;27;20465;-68
2023/10/30 03:29:23;;;;;;;2.35;2.15;;;11.00;99.90;;;;;;5133598;27;20106;-69
2023/10/30 03:31:52;;;;;;;4.40;2.45;;;11.00;99.90;;;;;;5133877;27;20348;-68
2023/10/30 03:34:19;;;;;;;1.92;1.70;;;11.10;99.90;;;;;;5134008;27;20038;-68
2023/10/30 03:36:45;;;;;;;4.25;2.08;;;11.10;99.90;;;;;;5133982;27;20020;-68
2023/10/30 03:39:10;;;;;;;3.20;1.95;;;11.10;99.90;;;;;;5133305;27;20030;-68
2023/10/30 03:41:37;;;;;;;2.47;1.90;;;11.10;99.90;;;;;;5133231;27;20031;-68
2023/10/30 03:44:03;;;;;;;3.72;2.00;;;11.10;99.90;;;;;;5133715;27;20479;-68
2023/10/30 03:46:29;;;;;;;4.13;2.10;;;11.10;99.90;;;;;;5133305;27;20025;-68
2023/10/30 03:48:54;;;;;;;4.25;1.95;;;11.10;99.90;;;;;;5133521;27;20035;-68
2023/10/30 03:51:20;;;;;;;2.92;1.90;;;11.00;99.90;;;;;;5133335;27;20038;-69
2023/10/30 03:53:46;;;;;;;2.95;1.98;;;10.90;99.90;;;;;;5133250;27;20102;-69
2023/10/30 03:56:11;;;;;;;6.00;2.83;;;10.90;99.90;;;;;;5134038;27;20356;-68
2023/10/30 03:58:37;;;;;;;3.53;2.65;;;10.90;99.90;;;;;;5132516;27;20035;-68
2023/10/30 04:01:09;;;;;;;5.38;2.80;;;10.90;99.90;;;;;;5133478;27;20084;-68
2023/10/30 04:03:35;;;;;;;3.53;2.10;;;10.90;99.90;;;;;;5115965;27;20023;-68
2023/10/30 04:06:02;;;;;;;3.78;2.78;;;10.90;99.90;;;;;;5132226;27;20440;-68
2023/10/30 04:08:28;;;;;;;5.60;2.70;;;10.80;99.90;;;;;;5132395;27;20031;-69
2023/10/30 04:10:53;;;;;;;7.35;2.28;;;10.80;99.90;;;;;;5133477;27;20349;-68
2023/10/30 04:13:19;;;;;;;6.00;2.22;;;10.90;99.90;;;;;;5132926;27;20011;-70
2023/10/30 04:15:45;;;;;;;4.20;1.95;;;10.90;99.90;;;;;;5132992;27;20506;-68
2023/10/30 04:18:11;;;;;;;4.47;2.00;;;10.90;99.90;;;;;;5132655;27;20047;-69
2023/10/30 04:20:36;;;;;;;4.32;2.35;;;10.80;99.90;;;;;;5132679;27;20058;-69
2023/10/30 04:23:02;;;;;;;2.92;2.03;;;10.80;99.90;;;;;;5132692;27;20023;-69
2023/10/30 04:25:28;;;;;;;3.42;2.00;;;10.70;99.90;;;;;;5132407;27;20019;-70
2023/10/30 04:27:53;;;;;;;3.13;2.30;;;10.60;99.90;;;;;;5134189;27;20016;-69
2023/10/30 04:30:19;;;;;;;2.75;2.17;;;10.60;99.90;;;;;;5116152;27;20075;-70
2023/10/30 04:32:45;;;;;;;5.80;2.38;;;10.60;99.90;;;;;;5132794;27;20034;-69
2023/10/30 04:35:11;;;;;;;5.07;2.83;;;10.50;99.90;;;;;;5133882;27;20019;-70
2023/10/30 04:37:36;;;;;;;3.80;2.63;;;10.50;99.90;;;;;;5133232;27;20023;-69
2023/10/30 04:40:04;;;;;;;6.35;2.58;;;10.50;99.90;;;;;;5114400;27;20413;-69
2023/10/30 04:42:30;;;;;;;3.55;2.13;;;10.40;99.90;;;;;;5131665;27;20363;-69
2023/10/30 04:44:56;;;;;;;4.20;2.33;;;10.40;99.90;;;;;;5132354;27;20023;-69
2023/10/30 04:47:21;;;;;;;3.17;2.20;;;10.30;99.90;;;;;;5114821;27;20508;-70
2023/10/30 04:49:47;;;;;;;2.75;2.10;;;10.30;99.90;;;;;;5132693;27;20486;-69
2023/10/30 04:52:13;;;;;;;4.40;2.00;;;10.20;99.90;;;;;;5133226;27;20035;-70
2023/10/30 04:54:39;;;;;;;3.22;2.03;;;10.20;99.90;;;;;;5131577;27;20313;-69
2023/10/30 04:57:05;;;;;;;4.18;1.75;;;10.20;99.90;;;;;;5132653;27;20027;-69
2023/10/30 04:59:30;;;;;;;2.35;1.75;;;10.20;99.90;;;;;;5131523;27;20088;-69
2023/10/30 05:01:56;;;;;;;3.67;1.95;;;10.20;99.90;;;;;;5132495;27;20026;-69
2023/10/30 05:04:22;;;;;;;3.35;2.30;;;10.20;99.90;;;;;;5131615;27;20020;-71
2023/10/30 05:06:48;;;;;;;3.70;2.20;;;10.20;99.90;;;;;;5132895;27;20034;-69
2023/10/30 05:09:13;;;;;;;5.15;2.80;;;10.30;99.90;;;;;;5132315;27;20076;-69
2023/10/30 05:11:39;;;;;;;4.93;3.17;;;10.30;99.90;;;;;;5131847;27;20970;-69
2023/10/30 05:14:05;;;;;;;4.63;3.20;;;10.40;99.90;;;;;;5131796;27;20540;-69
2023/10/30 05:16:31;;;;;;;3.83;2.60;;;10.50;99.90;;;;;;5131191;27;20047;-68
2023/10/30 05:18:58;;;;;;;5.65;4.05;;;10.50;99.90;;;;;;5131780;27;20038;-69
2023/10/30 05:21:23;;;;;;;6.45;4.22;;;10.60;99.90;;;;;;5131651;27;20027;-70
2023/10/30 05:23:49;;;;;;;7.63;4.10;;;10.70;99.90;;;;;;5131909;27;20023;-68
2023/10/30 05:26:15;;;;;;;6.10;4.40;;;10.80;99.90;;;;;;5132753;27;20046;-68
2023/10/30 05:28:41;;;;;;;6.47;5.38;;;10.80;99.90;;;;;;5131114;28;20456;-68
2023/10/30 05:31:06;;;;;;;9.52;5.47;;;10.70;99.90;;;;;;5137036;27;20019;-68
2023/10/30 05:33:32;;;;;;;8.27;5.10;;;10.70;99.90;;;;;;5137918;27;20102;-68
2023/10/30 05:35:58;;;;;;;5.85;5.22;;;10.70;99.90;;;;;;5139195;27;20023;-68
2023/10/30 05:38:23;;;;;;;5.70;5.10;;;10.70;99.90;;;;;;5137953;27;20023;-69
2023/10/30 05:40:49;;;;;;;7.53;5.32;;;10.50;99.90;;;;;;5139152;27;20448;-68
2023/10/30 05:43:15;;;;;;;7.38;6.07;;;10.50;99.90;;;;;;5120165;27;20022;-68
2023/10/30 05:45:40;;;;;;;6.82;6.10;;;10.30;99.90;;;;;;5138087;27;20083;-68
2023/10/30 05:48:06;;;;;;;10.98;6.18;;;10.30;99.90;;;;;;5138177;27;20061;-68
2023/10/30 05:50:32;;;;;;;9.10;6.70;;;10.20;99.90;;;;;;5138327;27;20027;-69
2023/10/30 05:52:58;;;;;;;11.35;7.13;;;10.20;99.90;;;;;;5138162;27;20050;-69
2023/10/30 05:55:24;;;;;;;10.32;7.85;;;10.10;99.90;;;;;;5137805;27;20047;-69
2023/10/30 05:57:49;;;;;;;14.02;9.43;;;10.20;99.90;;;;;;5138350;27;20064;-68
2023/10/30 06:00:15;;;;;;;11.85;9.52;;;10.20;99.90;;;;;;5133203;27;20083;-68
2023/10/30 06:02:41;;;;;;;10.20;9.13;;;10.30;99.90;;;;;;5133042;27;20016;-68
2023/10/30 06:05:08;;;;;;;10.23;8.45;;;10.30;99.90;;;;;;5137832;27;20031;-69
2023/10/30 06:07:34;;;;;;;10.63;8.30;;;10.40;99.90;;;;;;5135948;27;20068;-69
2023/10/30 06:10:00;;;;;;;8.13;7.30;;;10.40;99.90;;;;;;5121868;27;20103;-69
2023/10/30 06:12:26;;;;;;;8.48;5.97;;;10.50;99.90;;;;;;5121838;27;20034;-68
2023/10/30 06:14:52;;;;;;;6.82;5.70;;;10.60;99.90;;;;;;5131063;27;20011;-67
2023/10/30 06:17:17;;;;;;;5.97;4.80;;;10.60;99.90;;;;;;5127086;27;20042;-68
2023/10/30 06:19:43;;;;;;;6.43;5.57;;;10.60;99.90;;;;;;5125632;27;20043;-67
2023/10/30 06:22:08;;;;;;;7.57;4.20;;;10.70;99.90;;;;;;5125560;27;20023;-68
2023/10/30 06:24:34;;;;;;;6.00;3.83;;;10.70;99.90;;;;;;5120087;27;20026;-67
2023/10/30 06:26:59;;;;;;;6.78;4.50;;;10.70;99.90;;;;;;5120205;27;20016;-68
2023/10/30 06:29:25;;;;;;;5.82;3.92;;;10.80;99.90;;;;;;5118571;27;20056;-68
2023/10/30 06:31:51;;;;;;;5.05;4.55;;;10.80;99.90;;;;;;5125506;27;20023;-66
2023/10/30 06:34:16;;;;;;;5.65;4.50;;;10.80;99.90;;;;;;5121295;27;20464;-66
2023/10/30 06:36:42;;;;;;;6.72;4.20;;;10.80;99.90;;;;;;5135757;27;20051;-66
2023/10/30 06:39:08;;;;;;;4.50;3.90;;;10.80;99.90;;;;;;5130855;27;20030;-67
2023/10/30 06:41:33;;;;;;;4.30;3.80;;;10.90;99.90;;;;;;5116662;28;20007;-66
2023/10/30 06:43:59;;;;;;;7.88;5.20;;;10.90;99.90;;;;;;5114833;27;20031;-67
2023/10/30 06:46:24;;;;;;;7.93;5.00;;;10.80;99.90;;;;;;5121587;27;20030;-68
2023/10/30 06:48:50;;;;;;;7.38;5.40;;;10.90;99.90;;;;;;5127897;27;20075;-69
2023/10/30 06:51:15;;;;;;;9.20;5.20;;;10.90;99.90;;;;;;5113200;27;20063;-68
2023/10/30 06:53:41;;;;;;;5.75;4.38;;;10.90;99.90;;;;;;5102816;28;20066;-70
2023/10/30 06:56:07;;;;;;;5.55;4.68;;;10.90;99.90;;;;;;5131310;27;20038;-70
2023/10/30 06:58:32;;;;;;;6.85;5.22;;;10.90;99.90;;;;;;5133271;27;20029;-71
2023/10/30 07:01:02;;;;;;;6.65;5.32;;;10.80;99.90;;;;;;5134314;27;20097;-71
2023/10/30 07:03:28;;;;;;;;;;;10.80;99.90;;;;;;5133917;27;20058;-76
2023/10/30 07:05:54;;;;;;;8.85;4.60;;;10.80;99.90;;;;;;5134913;27;19931;-69
2023/10/30 07:08:19;;;;;;;7.70;5.32;;;10.80;99.90;;;;;;5133559;27;20027;-70
2023/10/30 07:10:45;;;;;;;8.18;5.57;;;10.90;99.90;;;;;;5134628;27;20035;-72
2023/10/30 07:13:10;;;;;;;7.43;4.80;;;10.90;99.90;;;;;;5134263;27;20019;-68
2023/10/30 07:15:36;;;;;;;9.43;5.85;;;10.90;99.90;;;;;;5137071;27;20043;-68
2023/10/30 07:18:02;;;;;;;26.63;16.17;;;10.90;99.90;;;;;;5133992;27;20019;-67
2023/10/30 07:20:27;;;;;;;13.45;8.00;;;11.00;99.90;;;;;;5130273;27;20024;-68
2023/10/30 07:22:53;;;;;;;9.02;6.47;;;11.00;99.90;;;;;;5133780;27;20019;-68
2023/10/30 07:25:18;;;;;;;8.52;6.03;;;11.00;99.90;;;;;;5134219;27;20068;-72
2023/10/30 07:27:44;;;;;;;6.00;4.93;;;11.10;99.90;;;;;;5109872;27;20710;-68
2023/10/30 07:30:10;;;;;;;5.63;4.30;;;11.10;99.90;;;;;;5128269;27;20038;-69
2023/10/30 07:32:36;;;;;;;7.22;4.13;;;11.10;99.90;;;;;;5133151;27;20050;-69
2023/10/30 07:35:01;;;;;;;5.80;4.63;;;11.10;99.90;;;;;;5133642;27;20439;-69
2023/10/30 07:37:27;;;;;;;6.72;4.65;;;11.20;99.90;;;;;;5132195;27;20058;-69
2023/10/30 07:39:53;;;;;;;5.95;4.70;;;11.20;99.90;;;;;;5127817;27;20098;-69
2023/10/30 07:42:19;;;;;;;5.25;4.75;;;11.20;99.90;;;;;;5133696;27;20015;-69
2023/10/30 07:44:44;;;;;;;7.40;4.65;;;11.30;99.90;;;;;;5132795;27;20027;-69
2023/10/30 07:47:10;;;;;;;5.32;4.30;;;11.30;99.90;;;;;;5133186;27;20022;-69
2023/10/30 07:49:36;;;;;;;9.55;5.13;;;11.30;99.90;;;;;;5132238;27;20086;-69
2023/10/30 07:52:01;;;;;;;5.43;4.68;;;11.40;99.90;;;;;;5125308;27;20024;-69
2023/10/30 07:54:27;;;;;;;6.75;4.93;;;11.40;99.90;;;;;;5127390;27;20075;-68
2023/10/30 07:56:52;;;;;;;4.85;3.97;;;11.50;99.90;;;;;;5133319;27;20031;-68
2023/10/30 07:59:18;;;;;;;4.93;4.30;;;11.60;99.90;;;;;;5129570;27;20068;-68
2023/10/30 08:01:45;;;;;;;4.30;3.90;;;11.60;99.90;;;;;;5114359;27;20368;-69
2023/10/30 08:04:11;;;;;;;6.15;5.10;;;11.70;99.90;;;;;;5132901;27;20131;-69
2023/10/30 08:06:36;;;;;;;5.75;4.90;;;11.80;99.90;;;;;;5132596;27;20408;-68
2023/10/30 08:09:02;;;;;;;5.65;4.93;;;11.80;99.90;;;;;;5133197;27;20030;-69
2023/10/30 08:11:28;;;;;;;7.35;5.47;;;11.90;99.90;;;;;;5132594;27;20035;-68
2023/10/30 08:13:53;;;;;;;6.75;4.85;;;12.00;99.90;;;;;;5133150;27;20023;-68
2023/10/30 08:16:19;;;;;;;6.13;4.90;;;12.00;99.90;;;;;;5132174;27;20042;-69
2023/10/30 08:18:46;;;;;;;5.50;4.72;;;12.10;99.90;;;;;;5132390;27;20023;-69
2023/10/30 08:21:11;;;;;;;5.90;4.70;;;12.20;99.90;;;;;;5122103;27;20023;-72
2023/10/30 08:23:37;;;;;;;6.88;4.88;;;12.20;99.90;;;;;;5131456;27;20023;-69
2023/10/30 08:26:05;;;;;;;5.90;4.88;;;12.30;99.90;;;;;;5133002;27;20046;-69
2023/10/30 08:28:30;;;;;;;5.25;4.40;;;12.30;99.90;;;;;;5131768;27;20027;-69
2023/10/30 08:30:56;;;;;;;5.60;4.50;;;12.40;99.90;;;;;;5130298;27;20065;-69
2023/10/30 08:33:22;;;;;;;5.97;4.47;;;12.50;99.90;;;;;;5127788;27;20030;-70
2023/10/30 08:35:47;;;;;;;7.15;4.90;;;12.50;99.90;;;;;;5126115;27;20019;-70
2023/10/30 08:38:13;;;;;;;4.32;3.92;;;12.70;99.90;;;;;;5115462;27;20348;-69
2023/10/30 08:40:39;;;;;;;5.20;3.90;;;12.80;99.90;;;;;;5115572;27;20797;-68
2023/10/30 08:43:04;;;;;;;7.60;4.40;;;12.90;99.90;;;;;;5129927;27;20050;-69
2023/10/30 08:45:30;;;;;;;5.05;4.28;;;13.00;99.90;;;;;;5115984;27;20113;-68
2023/10/30 08:47:56;;;;;;;6.30;4.60;;;13.00;99.90;;;;;;5131464;27;20030;-69
2023/10/30 08:50:21;;;;;;;5.45;3.70;;;13.20;99.90;;;;;;5131492;27;20391;-70
2023/10/30 08:52:48;;;;;;;5.97;3.95;;;13.20;99.90;;;;;;5131738;27;20061;-68
2023/10/30 08:55:14;;;;;;;6.38;3.95;;;13.20;99.90;;;;;;5123207;27;20023;-68
2023/10/30 08:57:39;;;;;;;5.38;3.90;;;13.20;99.90;;;;;;5130957;27;20023;-69
2023/10/30 09:00:09;;;;;;;5.57;4.78;;;13.40;99.90;;;;;;5125618;27;20494;-68
2023/10/30 09:02:34;;;;;;;8.07;4.25;;;13.50;99.90;;;;;;5130549;27;20015;-69
2023/10/30 09:05:00;;;;;;;6.20;4.82;;;13.60;99.90;;;;;;5125027;27;20102;-69
2023/10/30 09:07:26;;;;;;;5.10;4.00;;;13.70;99.90;;;;;;5111391;27;20038;-69
2023/10/30 09:09:52;;;;;;;4.60;3.60;;;13.70;99.90;;;;;;5131914;27;20027;-69
2023/10/30 09:12:17;;;;;;;5.05;3.72;;;13.70;99.90;;;;;;5131714;27;20027;-69
2023/10/30 09:14:43;;;;;;;4.35;3.60;;;13.80;99.90;;;;;;5123130;27;20027;-67
2023/10/30 09:17:09;;;;;;;3.65;2.85;;;13.80;99.90;;;;;;5128063;27;20081;-69
2023/10/30 09:19:36;;;;;;;4.47;3.20;;;13.80;99.90;;;;;;5129014;27;20027;-69
2023/10/30 09:22:02;;;;;;;3.75;3.17;;;13.90;99.90;;;;;;5128045;28;20023;-69
2023/10/30 09:24:28;;;;;;;4.03;2.85;;;14.00;99.90;;;;;;5133008;27;20027;-69
2023/10/30 09:26:54;;;;;;;4.65;3.13;;;14.10;99.90;;;;;;5135638;27;20466;-69
2023/10/30 09:29:19;;;;;;;3.70;3.00;;;14.10;99.90;;;;;;5126536;28;20034;-70
2023/10/30 09:31:46;;;;;;;3.20;2.90;;;14.20;99.90;;;;;;5130740;28;20035;-68
2023/10/30 09:34:12;;;;;;;3.22;2.60;;;14.30;99.90;;;;;;5122943;28;20016;-69
2023/10/30 09:36:38;;;;;;;3.65;2.80;;;14.40;99.90;;;;;;5123712;28;20462;-69
2023/10/30 09:39:03;;;;;;;3.85;2.35;;;14.50;99.90;;;;;;5127218;28;20039;-68
2023/10/30 09:41:29;;;;;;;4.75;2.72;;;14.50;99.90;;;;;;5130892;28;20046;-70
2023/10/30 09:43:58;;;;;;;4.65;2.90;;;14.60;99.90;;;;;;5131086;28;20027;-70
2023/10/30 09:46:28;;;;;;;4.45;2.53;;;14.60;99.90;;;;;;5128948;28;20059;-70
2023/10/30 09:48:54;;;;;;;;;;;14.70;99.90;;;;;;5129669;28;20031;-69
2023/10/30 09:51:21;;;;;;;2.30;1.80;;;14.90;99.90;;;;;;5130499;28;19907;-70
2023/10/30 09:53:48;;;;;;;2.40;2.20;;;15.00;99.90;;;;;;5128076;28;20027;-68
2023/10/30 09:56:16;;;;;;;3.72;2.30;;;15.10;99.90;;;;;;5120218;28;20072;-69
2023/10/30 09:58:42;;;;;;;2.50;2.30;;;15.20;99.90;;;;;;5128662;28;20180;-69
2023/10/30 10:01:08;;;;;;;5.30;2.40;;;15.40;99.90;;;;;;5129333;28;20019;-69
2023/10/30 10:03:33;;;;;;;2.50;2.30;;;15.40;99.90;;;;;;5129510;28;20071;-68
2023/10/30 10:06:00;;;;;;;3.22;2.25;;;15.50;99.90;;;;;;5111324;28;20016;-68
2023/10/30 10:08:26;;;;;;;2.47;2.28;;;15.50;99.90;;;;;;5129260;28;20477;-67
2023/10/30 10:10:55;;;;;;;2.97;2.30;;;15.60;99.90;;;;;;5130798;28;20027;-68
2023/10/30 10:13:21;;;;;;;3.90;2.05;;;15.60;99.90;;;;;;5121991;28;20467;-69
2023/10/30 10:15:47;;;;;;;2.55;2.08;;;15.60;99.90;;;;;;5117835;27;20053;-68
2023/10/30 10:18:27;;;;;;;3.40;2.00;;;15.70;99.90;;;;;;5132230;27;20031;-68
2023/10/30 10:21:08;;;;;;;2.33;2.13;;;15.70;99.90;;;;;;5130734;27;20442;-68
2023/10/30 10:23:36;;;;;;;3.40;2.58;;;15.70;99.90;;;;;;5129239;27;20024;-67
2023/10/30 10:26:14;;;;;;;2.72;1.77;;;15.70;99.90;;;;;;5123155;27;20023;-68
2023/10/30 10:28:46;;;;;;;2.00;1.77;;;15.70;99.90;;;;;;5133659;27;20065;-67
2023/10/30 10:31:11;;;;;;;3.70;2.10;;;15.80;99.90;;;;;;5133831;27;20035;-68
2023/10/30 10:33:37;;;;;;;2.33;1.98;;;15.90;99.90;;;;;;5133541;27;20031;-68
2023/10/30 10:36:04;;;;;;;4.35;1.60;;;15.90;99.90;;;;;;5135125;27;20051;-67
2023/10/30 10:38:33;;;;;;;4.38;1.83;;;16.00;99.90;;;;;;5134661;27;20015;-67
2023/10/30 10:40:59;;;;;;;2.85;1.88;;;16.10;99.90;;;;;;5134407;27;20034;-69
2023/10/30 10:43:27;;;;;;;3.33;2.53;;;16.20;99.90;;;;;;5133969;27;20022;-67
2023/10/30 10:45:54;;;;;;;5.25;2.70;;;16.40;99.90;;;;;;5120787;27;20061;-68
2023/10/30 10:48:21;;;;;;;7.50;2.30;;;16.50;99.90;;;;;;5130251;27;20027;-68
2023/10/30 10:50:47;;;;;;;3.03;2.08;;;16.60;99.90;;;;;;5133621;27;20114;-68
2023/10/30 10:53:17;;;;;;;3.83;2.15;;;16.60;99.90;;;;;;5133846;27;20483;-68
2023/10/30 10:55:47;;;;;;;4.37;2.33;;;16.60;99.90;;;;;;5122951;27;20098;-70
2023/10/30 10:58:46;;;;;;;3.03;1.75;;;16.60;99.90;;;;;;5134346;27;20015;-68
2023/10/30 11:01:19;;;;;;;4.25;1.70;;;16.60;99.90;;;;;;5133688;27;20043;-68
2023/10/30 11:03:45;;;;;;;2.30;1.63;;;16.70;99.90;;;;;;5133034;27;20019;-69
2023/10/30 11:06:13;;;;;;;2.80;1.63;;;16.70;99.90;;;;;;5124328;27;20428;-69
2023/10/30 11:08:48;;;;;;;5.20;1.48;;;16.60;99.90;;;;;;5138519;27;20062;-69
2023/10/30 11:11:17;;;;;;;4.40;1.55;;;16.70;99.90;;;;;;5115943;27;20067;-67
2023/10/30 11:14:04;;;;;;;5.07;1.60;;;16.70;99.90;;;;;;5132703;27;20023;-69
2023/10/30 11:16:48;;;;;;;4.30;1.00;;;16.70;99.90;;;;;;5115733;27;20442;-69
2023/10/30 11:19:21;;;;;;;2.33;0.93;;;16.80;99.90;;;;;;5119756;27;20027;-69
2023/10/30 11:21:49;;;;;;;3.85;1.00;;;16.80;99.90;;;;;;5123001;27;20147;-69
2023/10/30 11:24:43;;;;;;;5.18;1.10;;;16.80;99.90;;;;;;5131797;27;20019;-69
2023/10/30 11:27:38;;;;;;;1.15;0.85;;;16.80;99.90;;;;;;5130064;27;20076;-68
2023/10/30 11:30:11;;;;;;;2.55;1.13;;;16.80;99.90;;;;;;5092207;27;20045;-68
2023/10/30 11:32:46;;;;;;;1.58;1.10;;;16.80;99.90;;;;;;5127715;27;20012;-68
2023/10/30 11:35:11;;;;;;;3.28;1.00;;;16.80;99.90;;;;;;5131424;27;20533;-68
2023/10/30 11:37:39;;;;;;;3.50;1.20;;;16.70;99.90;;;;;;5132543;27;20110;-68
2023/10/30 11:40:09;;;;;;;2.85;1.60;;;16.60;99.90;;;;;;5130707;27;20451;-68
2023/10/30 11:42:40;;;;;;;2.47;1.40;;;16.50;99.90;;;;;;5131893;27;20026;-68
2023/10/30 11:45:18;;;;;;;3.20;1.48;;;16.40;99.90;;;;;;5133764;27;20049;-68
2023/10/30 11:47:49;;;;;;;3.33;1.63;;;16.30;99.90;;;;;;5123661;27;20026;-69
2023/10/30 11:50:18;;;;;;;3.03;1.20;;;16.30;99.90;;;;;;5124710;27;20035;-71
2023/10/30 11:52:46;;;;;;;4.10;1.42;;;16.30;99.90;;;;;;5124445;27;20506;-68
2023/10/30 11:55:12;;;;;;;1.98;1.17;;;16.20;99.90;;;;;;5128023;27;20027;-74
2023/10/30 11:57:38;;;;;;;2.38;1.33;;;16.20;99.90;;;;;;5131985;27;20015;-68
2023/10/30 12:00:04;;;;;;;4.25;1.70;;;16.10;99.90;;;;;;5127181;27;20028;-67
2023/10/30 12:02:29;;;;;;;3.00;1.10;;;16.10;99.90;;;;;;5121644;27;20400;-66
2023/10/30 12:05:05;;;;;;;2.80;1.80;;;16.10;99.90;;;;;;5128356;27;20084;-67
2023/10/30 12:07:31;;;;;;;3.33;1.90;;;16.00;99.90;;;;;;5131050;27;20154;-68
2023/10/30 12:10:03;;;;;;;3.72;2.08;;;16.00;99.90;;;;;;5128188;27;20119;-67
2023/10/30 12:12:30;;;;;;;2.47;1.45;;;16.10;99.90;;;;;;5122726;27;20031;-68
2023/10/30 12:15:00;;;;;;;6.07;1.45;;;16.10;99.90;;;;;;5130515;27;20023;-67
2023/10/30 12:17:26;;;;;;;5.82;1.50;;;16.20;99.90;;;;;;5131486;27;20027;-68
2023/10/30 12:19:52;;;;;;;3.55;1.40;;;16.30;99.90;;;;;;5129012;27;20023;-68
2023/10/30 12:22:18;;;;;;;2.83;1.08;;;16.50;99.90;;;;;;5129497;27;20034;-68
2023/10/30 12:24:44;;;;;;;5.05;1.15;;;16.70;99.90;;;;;;5129449;27;20025;-68
2023/10/30 12:27:19;;;;;;;3.67;1.40;;;16.80;99.90;;;;;;5130478;27;20015;-68
2023/10/30 12:29:44;;;;;;;2.05;0.82;;;16.90;99.90;;;;;;5129487;27;20360;-69
2023/10/30 12:32:10;;;;;;;1.70;1.10;;;17.00;99.90;;;;;;5129943;27;20030;-68
2023/10/30 12:34:36;;;;;;;2.55;1.30;;;17.10;99.90;;;;;;5130777;27;20022;-68
2023/10/30 12:37:18;;;;;;;4.35;1.23;;;17.20;99.90;;;;;;5131748;27;20015;-68
2023/10/30 12:40:09;;;;;;;4.82;1.10;;;17.30;99.90;;;;;;5129131;27;20023;-69
2023/10/30 12:42:37;;;;;;;2.03;1.20;;;17.30;99.90;;;;;;5124786;27;20482;-69
2023/10/30 12:45:07;;;;;;;3.28;0.93;;;17.20;99.90;;;;;;5130117;27;20019;-68